sensor_id;sensor_type;location;lat;lon;timestamp;P1;durP1;ratioP1;P2;durP2;ratioP2
28836;SDS011;50669;50.982;11.022;2023-12-20T00:01:03;3.10;;;0.90;;
28836;SDS011;50669;50.982;11.022;2023-12-20T00:03:33;1.50;;;0.50;;
28836;SDS011;50669;50.982;11.022;2023-12-20T00:05:59;3.05;;;0.88;;
28836;SDS011;50669;50.982;11.022;2023-12-20T00:08:24;3.75;;;0.80;;
28836;SDS011;50669;50.982;11.022;2023-12-20T00:10:50;1.90;;;0.65;;
28836;SDS011;50669;50.982;11.022;2023-12-20T00:13:18;3.25;;;0.60;;
28836;SDS011;50669;50.982;11.022;2023-12-20T00:15:44;2.28;;;0.75;;
28836;SDS011;50669;50.982;11.022;2023-12-20T00:18:09;2.85;;;0.70;;
28836;SDS011;50669;50.982;11.022;2023-12-20T00:20:37;3.60;;;0.80;;
28836;SDS011;50669;50.982;11.022;2023-12-20T00:23:03;7.10;;;1.30;;
28836;SDS011;50669;50.982;11.022;2023-12-20T00:25:31;1.77;;;0.70;;
28836;SDS011;50669;50.982;11.022;2023-12-20T00:28:00;1.77;;;0.68;;
28836;SDS011;50669;50.982;11.022;2023-12-20T00:30:28;1.35;;;0.55;;
28836;SDS011;50669;50.982;11.022;2023-12-20T00:32:58;2.95;;;0.80;;
28836;SDS011;50669;50.982;11.022;2023-12-20T00:35:26;1.70;;;0.60;;
28836;SDS011;50669;50.982;11.022;2023-12-20T00:37:54;1.05;;;0.60;;
28836;SDS011;50669;50.982;11.022;2023-12-20T00:40:23;4.32;;;0.70;;
28836;SDS011;50669;50.982;11.022;2023-12-20T00:42:49;1.92;;;0.60;;
28836;SDS011;50669;50.982;11.022;2023-12-20T00:45:17;2.83;;;0.60;;
28836;SDS011;50669;50.982;11.022;2023-12-20T00:47:42;1.48;;;0.80;;
28836;SDS011;50669;50.982;11.022;2023-12-20T00:50:11;1.98;;;0.77;;
28836;SDS011;50669;50.982;11.022;2023-12-20T00:52:38;2.22;;;0.60;;
28836;SDS011;50669;50.982;11.022;2023-12-20T00:55:04;1.70;;;0.70;;
28836;SDS011;50669;50.982;11.022;2023-12-20T00:57:30;1.63;;;0.60;;
28836;SDS011;50669;50.982;11.022;2023-12-20T00:59:56;3.05;;;0.57;;
28836;SDS011;50669;50.982;11.022;2023-12-20T01:02:24;4.50;;;0.60;;
28836;SDS011;50669;50.982;11.022;2023-12-20T01:04:54;1.88;;;0.50;;
28836;SDS011;50669;50.982;11.022;2023-12-20T01:07:20;1.58;;;0.70;;
28836;SDS011;50669;50.982;11.022;2023-12-20T01:09:48;1.55;;;0.63;;
28836;SDS011;50669;50.982;11.022;2023-12-20T01:12:16;3.35;;;0.90;;
28836;SDS011;50669;50.982;11.022;2023-12-20T01:14:45;2.30;;;0.82;;
28836;SDS011;50669;50.982;11.022;2023-12-20T01:17:11;1.08;;;0.50;;
28836;SDS011;50669;50.982;11.022;2023-12-20T01:19:37;1.90;;;0.80;;
28836;SDS011;50669;50.982;11.022;2023-12-20T01:22:05;3.97;;;0.90;;
28836;SDS011;50669;50.982;11.022;2023-12-20T01:24:33;1.30;;;0.60;;
28836;SDS011;50669;50.982;11.022;2023-12-20T01:26:58;4.75;;;0.90;;
28836;SDS011;50669;50.982;11.022;2023-12-20T01:29:24;2.75;;;0.90;;
28836;SDS011;50669;50.982;11.022;2023-12-20T01:31:50;1.90;;;0.98;;
28836;SDS011;50669;50.982;11.022;2023-12-20T01:34:18;1.95;;;0.60;;
28836;SDS011;50669;50.982;11.022;2023-12-20T01:36:46;2.03;;;0.38;;
28836;SDS011;50669;50.982;11.022;2023-12-20T01:39:11;1.38;;;0.50;;
28836;SDS011;50669;50.982;11.022;2023-12-20T01:41:39;2.72;;;0.60;;
28836;SDS011;50669;50.982;11.022;2023-12-20T01:44:07;2.22;;;0.57;;
28836;SDS011;50669;50.982;11.022;2023-12-20T01:46:33;2.10;;;0.70;;
28836;SDS011;50669;50.982;11.022;2023-12-20T01:49:01;2.35;;;0.77;;
28836;SDS011;50669;50.982;11.022;2023-12-20T01:51:29;3.33;;;0.70;;
28836;SDS011;50669;50.982;11.022;2023-12-20T01:53:56;2.22;;;0.57;;
28836;SDS011;50669;50.982;11.022;2023-12-20T01:56:24;4.25;;;0.60;;
28836;SDS011;50669;50.982;11.022;2023-12-20T01:58:51;4.07;;;0.70;;
28836;SDS011;50669;50.982;11.022;2023-12-20T02:01:17;2.75;;;0.80;;
28836;SDS011;50669;50.982;11.022;2023-12-20T02:03:45;1.05;;;0.77;;
28836;SDS011;50669;50.982;11.022;2023-12-20T02:06:13;1.45;;;0.50;;
28836;SDS011;50669;50.982;11.022;2023-12-20T02:08:39;1.75;;;0.70;;
28836;SDS011;50669;50.982;11.022;2023-12-20T02:11:05;0.68;;;0.50;;
28836;SDS011;50669;50.982;11.022;2023-12-20T02:13:31;2.22;;;0.63;;
28836;SDS011;50669;50.982;11.022;2023-12-20T02:15:59;1.27;;;0.60;;
28836;SDS011;50669;50.982;11.022;2023-12-20T02:18:25;1.38;;;0.40;;
28836;SDS011;50669;50.982;11.022;2023-12-20T02:20:51;7.72;;;0.70;;
28836;SDS011;50669;50.982;11.022;2023-12-20T02:23:17;1.77;;;0.50;;
28836;SDS011;50669;50.982;11.022;2023-12-20T02:25:42;1.83;;;0.68;;
28836;SDS011;50669;50.982;11.022;2023-12-20T02:28:08;1.73;;;0.50;;
28836;SDS011;50669;50.982;11.022;2023-12-20T02:30:34;2.45;;;0.65;;
28836;SDS011;50669;50.982;11.022;2023-12-20T02:33:00;0.90;;;0.50;;
28836;SDS011;50669;50.982;11.022;2023-12-20T02:35:28;2.53;;;0.55;;
28836;SDS011;50669;50.982;11.022;2023-12-20T02:37:54;2.95;;;0.73;;
28836;SDS011;50669;50.982;11.022;2023-12-20T02:40:19;2.75;;;0.60;;
28836;SDS011;50669;50.982;11.022;2023-12-20T02:42:47;2.15;;;0.50;;
28836;SDS011;50669;50.982;11.022;2023-12-20T02:45:13;1.95;;;0.50;;
28836;SDS011;50669;50.982;11.022;2023-12-20T02:47:39;2.85;;;0.68;;
28836;SDS011;50669;50.982;11.022;2023-12-20T02:50:04;0.77;;;0.47;;
28836;SDS011;50669;50.982;11.022;2023-12-20T02:52:33;2.40;;;0.60;;
28836;SDS011;50669;50.982;11.022;2023-12-20T02:54:58;1.15;;;0.75;;
28836;SDS011;50669;50.982;11.022;2023-12-20T02:57:26;1.38;;;0.60;;
28836;SDS011;50669;50.982;11.022;2023-12-20T02:59:52;1.65;;;0.50;;
28836;SDS011;50669;50.982;11.022;2023-12-20T03:02:17;2.63;;;0.55;;
28836;SDS011;50669;50.982;11.022;2023-12-20T03:04:45;2.45;;;0.60;;
28836;SDS011;50669;50.982;11.022;2023-12-20T03:07:16;1.60;;;0.47;;
28836;SDS011;50669;50.982;11.022;2023-12-20T03:09:41;2.10;;;0.85;;
28836;SDS011;50669;50.982;11.022;2023-12-20T03:12:07;2.25;;;0.40;;
28836;SDS011;50669;50.982;11.022;2023-12-20T03:14:35;1.20;;;0.50;;
28836;SDS011;50669;50.982;11.022;2023-12-20T03:17:00;2.03;;;0.47;;
28836;SDS011;50669;50.982;11.022;2023-12-20T03:19:26;1.98;;;0.50;;
28836;SDS011;50669;50.982;11.022;2023-12-20T03:21:52;0.60;;;0.30;;
28836;SDS011;50669;50.982;11.022;2023-12-20T03:24:19;2.05;;;0.50;;
28836;SDS011;50669;50.982;11.022;2023-12-20T03:26:45;2.55;;;0.50;;
28836;SDS011;50669;50.982;11.022;2023-12-20T03:29:11;2.33;;;0.40;;
28836;SDS011;50669;50.982;11.022;2023-12-20T03:31:39;3.63;;;0.65;;
28836;SDS011;50669;50.982;11.022;2023-12-20T03:34:07;2.15;;;0.75;;
28836;SDS011;50669;50.982;11.022;2023-12-20T03:36:32;1.35;;;0.50;;
28836;SDS011;50669;50.982;11.022;2023-12-20T03:39:00;1.45;;;0.52;;
28836;SDS011;50669;50.982;11.022;2023-12-20T03:41:26;1.00;;;0.40;;
28836;SDS011;50669;50.982;11.022;2023-12-20T03:43:51;2.28;;;0.43;;
28836;SDS011;50669;50.982;11.022;2023-12-20T03:46:17;0.88;;;0.40;;
28836;SDS011;50669;50.982;11.022;2023-12-20T03:48:45;1.58;;;0.43;;
28836;SDS011;50669;50.982;11.022;2023-12-20T03:51:16;2.15;;;0.60;;
28836;SDS011;50669;50.982;11.022;2023-12-20T03:53:44;1.45;;;0.40;;
28836;SDS011;50669;50.982;11.022;2023-12-20T03:56:09;1.15;;;0.35;;
28836;SDS011;50669;50.982;11.022;2023-12-20T03:58:35;2.67;;;0.40;;
28836;SDS011;50669;50.982;11.022;2023-12-20T04:01:01;1.60;;;0.40;;
28836;SDS011;50669;50.982;11.022;2023-12-20T04:03:27;4.75;;;0.88;;
28836;SDS011;50669;50.982;11.022;2023-12-20T04:05:57;3.13;;;0.43;;
28836;SDS011;50669;50.982;11.022;2023-12-20T04:08:23;0.50;;;0.40;;
28836;SDS011;50669;50.982;11.022;2023-12-20T04:10:48;2.88;;;0.65;;
28836;SDS011;50669;50.982;11.022;2023-12-20T04:13:16;0.55;;;0.35;;
28836;SDS011;50669;50.982;11.022;2023-12-20T04:15:42;0.70;;;0.30;;
28836;SDS011;50669;50.982;11.022;2023-12-20T04:18:08;1.17;;;0.40;;
28836;SDS011;50669;50.982;11.022;2023-12-20T04:20:35;1.77;;;0.50;;
28836;SDS011;50669;50.982;11.022;2023-12-20T04:23:01;1.55;;;0.60;;
28836;SDS011;50669;50.982;11.022;2023-12-20T04:25:29;1.40;;;0.45;;
28836;SDS011;50669;50.982;11.022;2023-12-20T04:27:55;0.77;;;0.40;;
28836;SDS011;50669;50.982;11.022;2023-12-20T04:30:20;1.02;;;0.40;;
28836;SDS011;50669;50.982;11.022;2023-12-20T04:32:49;0.22;;;0.20;;
28836;SDS011;50669;50.982;11.022;2023-12-20T04:35:16;0.93;;;0.60;;
28836;SDS011;50669;50.982;11.022;2023-12-20T04:37:42;1.48;;;0.40;;
28836;SDS011;50669;50.982;11.022;2023-12-20T04:40:08;2.17;;;0.50;;
28836;SDS011;50669;50.982;11.022;2023-12-20T04:42:34;3.15;;;0.47;;
28836;SDS011;50669;50.982;11.022;2023-12-20T04:45:02;0.95;;;0.40;;
28836;SDS011;50669;50.982;11.022;2023-12-20T04:47:28;2.05;;;0.40;;
28836;SDS011;50669;50.982;11.022;2023-12-20T04:49:58;1.23;;;0.70;;
28836;SDS011;50669;50.982;11.022;2023-12-20T04:52:24;1.02;;;0.40;;
28836;SDS011;50669;50.982;11.022;2023-12-20T04:54:50;2.67;;;0.40;;
28836;SDS011;50669;50.982;11.022;2023-12-20T04:57:16;1.13;;;0.43;;
28836;SDS011;50669;50.982;11.022;2023-12-20T04:59:42;1.63;;;0.50;;
28836;SDS011;50669;50.982;11.022;2023-12-20T05:02:07;3.97;;;0.43;;
28836;SDS011;50669;50.982;11.022;2023-12-20T05:04:33;3.50;;;0.50;;
28836;SDS011;50669;50.982;11.022;2023-12-20T05:06:59;1.73;;;0.55;;
28836;SDS011;50669;50.982;11.022;2023-12-20T05:09:29;1.75;;;0.80;;
28836;SDS011;50669;50.982;11.022;2023-12-20T05:11:55;0.50;;;0.30;;
28836;SDS011;50669;50.982;11.022;2023-12-20T05:14:21;0.90;;;0.40;;
28836;SDS011;50669;50.982;11.022;2023-12-20T05:16:50;0.50;;;0.32;;
28836;SDS011;50669;50.982;11.022;2023-12-20T05:19:15;1.05;;;0.32;;
28836;SDS011;50669;50.982;11.022;2023-12-20T05:21:43;1.30;;;0.43;;
28836;SDS011;50669;50.982;11.022;2023-12-20T05:24:11;0.77;;;0.57;;
28836;SDS011;50669;50.982;11.022;2023-12-20T05:26:37;0.60;;;0.30;;
28836;SDS011;50669;50.982;11.022;2023-12-20T05:29:03;3.28;;;0.60;;
28836;SDS011;50669;50.982;11.022;2023-12-20T05:31:28;2.17;;;0.40;;
28836;SDS011;50669;50.982;11.022;2023-12-20T05:33:57;0.75;;;0.32;;
28836;SDS011;50669;50.982;11.022;2023-12-20T05:36:27;9.63;;;0.57;;
28836;SDS011;50669;50.982;11.022;2023-12-20T05:38:55;1.90;;;0.38;;
28836;SDS011;50669;50.982;11.022;2023-12-20T05:41:23;0.60;;;0.40;;
28836;SDS011;50669;50.982;11.022;2023-12-20T05:43:51;2.70;;;0.40;;
28836;SDS011;50669;50.982;11.022;2023-12-20T05:46:17;0.73;;;0.22;;
28836;SDS011;50669;50.982;11.022;2023-12-20T05:48:46;0.50;;;0.30;;
28836;SDS011;50669;50.982;11.022;2023-12-20T05:51:14;0.65;;;0.35;;
28836;SDS011;50669;50.982;11.022;2023-12-20T05:53:39;1.42;;;0.40;;
28836;SDS011;50669;50.982;11.022;2023-12-20T05:56:05;2.03;;;0.40;;
28836;SDS011;50669;50.982;11.022;2023-12-20T05:58:31;1.13;;;0.47;;
28836;SDS011;50669;50.982;11.022;2023-12-20T06:00:57;0.93;;;0.40;;
28836;SDS011;50669;50.982;11.022;2023-12-20T06:03:23;1.00;;;0.40;;
28836;SDS011;50669;50.982;11.022;2023-12-20T06:05:51;3.60;;;0.35;;
28836;SDS011;50669;50.982;11.022;2023-12-20T06:08:21;1.50;;;0.47;;
28836;SDS011;50669;50.982;11.022;2023-12-20T06:10:49;2.58;;;0.77;;
28836;SDS011;50669;50.982;11.022;2023-12-20T06:13:15;1.90;;;0.60;;
28836;SDS011;50669;50.982;11.022;2023-12-20T06:15:43;3.58;;;1.27;;
28836;SDS011;50669;50.982;11.022;2023-12-20T06:18:10;2.05;;;0.90;;
28836;SDS011;50669;50.982;11.022;2023-12-20T06:20:39;3.45;;;1.10;;
28836;SDS011;50669;50.982;11.022;2023-12-20T06:23:04;1.85;;;1.10;;
28836;SDS011;50669;50.982;11.022;2023-12-20T06:25:30;1.65;;;1.17;;
28836;SDS011;50669;50.982;11.022;2023-12-20T06:27:55;1.83;;;1.10;;
28836;SDS011;50669;50.982;11.022;2023-12-20T06:30:21;3.05;;;1.15;;
28836;SDS011;50669;50.982;11.022;2023-12-20T06:32:47;5.10;;;1.05;;
28836;SDS011;50669;50.982;11.022;2023-12-20T06:35:12;4.07;;;0.90;;
28836;SDS011;50669;50.982;11.022;2023-12-20T06:37:38;4.78;;;0.98;;
28836;SDS011;50669;50.982;11.022;2023-12-20T06:40:07;5.53;;;1.00;;
28836;SDS011;50669;50.982;11.022;2023-12-20T06:42:34;5.25;;;1.33;;
28836;SDS011;50669;50.982;11.022;2023-12-20T06:45:02;6.90;;;0.90;;
28836;SDS011;50669;50.982;11.022;2023-12-20T06:47:28;3.60;;;1.15;;
28836;SDS011;50669;50.982;11.022;2023-12-20T06:49:54;2.83;;;0.90;;
28836;SDS011;50669;50.982;11.022;2023-12-20T06:52:20;2.67;;;0.70;;
28836;SDS011;50669;50.982;11.022;2023-12-20T06:54:47;3.97;;;1.05;;
28836;SDS011;50669;50.982;11.022;2023-12-20T06:57:15;2.25;;;0.80;;
28836;SDS011;50669;50.982;11.022;2023-12-20T06:59:41;4.40;;;0.80;;
28836;SDS011;50669;50.982;11.022;2023-12-20T07:02:08;2.63;;;0.90;;
28836;SDS011;50669;50.982;11.022;2023-12-20T07:04:42;3.22;;;0.70;;
28836;SDS011;50669;50.982;11.022;2023-12-20T07:07:10;2.20;;;0.95;;
28836;SDS011;50669;50.982;11.022;2023-12-20T07:09:40;2.22;;;0.45;;
28836;SDS011;50669;50.982;11.022;2023-12-20T07:12:08;4.25;;;1.15;;
28836;SDS011;50669;50.982;11.022;2023-12-20T07:14:36;6.95;;;1.15;;
28836;SDS011;50669;50.982;11.022;2023-12-20T07:17:01;1.15;;;0.50;;
28836;SDS011;50669;50.982;11.022;2023-12-20T07:19:28;2.92;;;0.60;;
28836;SDS011;50669;50.982;11.022;2023-12-20T07:21:54;3.33;;;0.77;;
28836;SDS011;50669;50.982;11.022;2023-12-20T07:24:22;3.42;;;0.70;;
28836;SDS011;50669;50.982;11.022;2023-12-20T07:26:48;0.93;;;0.55;;
28836;SDS011;50669;50.982;11.022;2023-12-20T07:29:13;1.77;;;0.82;;
28836;SDS011;50669;50.982;11.022;2023-12-20T07:31:39;3.33;;;0.73;;
28836;SDS011;50669;50.982;11.022;2023-12-20T07:34:05;1.67;;;0.65;;
28836;SDS011;50669;50.982;11.022;2023-12-20T07:36:30;1.98;;;0.63;;
28836;SDS011;50669;50.982;11.022;2023-12-20T07:38:56;3.15;;;0.70;;
28836;SDS011;50669;50.982;11.022;2023-12-20T07:41:22;1.70;;;0.60;;
28836;SDS011;50669;50.982;11.022;2023-12-20T07:43:48;1.58;;;0.65;;
28836;SDS011;50669;50.982;11.022;2023-12-20T07:46:17;3.08;;;0.70;;
28836;SDS011;50669;50.982;11.022;2023-12-20T07:48:47;2.72;;;0.50;;
28836;SDS011;50669;50.982;11.022;2023-12-20T07:51:13;2.55;;;0.80;;
28836;SDS011;50669;50.982;11.022;2023-12-20T07:53:41;2.28;;;0.50;;
28836;SDS011;50669;50.982;11.022;2023-12-20T07:56:18;1.60;;;0.60;;
28836;SDS011;50669;50.982;11.022;2023-12-20T07:58:47;3.33;;;0.50;;
28836;SDS011;50669;50.982;11.022;2023-12-20T08:01:15;1.50;;;0.50;;
28836;SDS011;50669;50.982;11.022;2023-12-20T08:03:43;1.92;;;0.50;;
28836;SDS011;50669;50.982;11.022;2023-12-20T08:06:09;1.48;;;0.70;;
28836;SDS011;50669;50.982;11.022;2023-12-20T08:08:35;2.55;;;0.70;;
28836;SDS011;50669;50.982;11.022;2023-12-20T08:11:00;2.95;;;0.57;;
28836;SDS011;50669;50.982;11.022;2023-12-20T08:13:27;0.85;;;0.60;;
28836;SDS011;50669;50.982;11.022;2023-12-20T08:15:53;2.53;;;0.80;;
28836;SDS011;50669;50.982;11.022;2023-12-20T08:18:21;2.53;;;0.50;;
28836;SDS011;50669;50.982;11.022;2023-12-20T08:20:48;2.28;;;0.57;;
28836;SDS011;50669;50.982;11.022;2023-12-20T08:23:14;1.42;;;0.60;;
28836;SDS011;50669;50.982;11.022;2023-12-20T08:25:42;3.92;;;0.63;;
28836;SDS011;50669;50.982;11.022;2023-12-20T08:28:08;2.95;;;0.60;;
28836;SDS011;50669;50.982;11.022;2023-12-20T08:30:34;0.98;;;0.50;;
28836;SDS011;50669;50.982;11.022;2023-12-20T08:33:00;1.63;;;0.50;;
28836;SDS011;50669;50.982;11.022;2023-12-20T08:35:25;2.17;;;0.50;;
28836;SDS011;50669;50.982;11.022;2023-12-20T08:37:51;1.88;;;0.70;;
28836;SDS011;50669;50.982;11.022;2023-12-20T08:40:17;2.28;;;0.60;;
28836;SDS011;50669;50.982;11.022;2023-12-20T08:42:42;2.80;;;0.60;;
28836;SDS011;50669;50.982;11.022;2023-12-20T08:45:09;2.08;;;0.60;;
28836;SDS011;50669;50.982;11.022;2023-12-20T08:47:35;1.90;;;0.60;;
28836;SDS011;50669;50.982;11.022;2023-12-20T08:50:00;2.50;;;0.60;;
28836;SDS011;50669;50.982;11.022;2023-12-20T08:52:27;0.68;;;0.50;;
28836;SDS011;50669;50.982;11.022;2023-12-20T08:54:54;2.45;;;0.80;;
28836;SDS011;50669;50.982;11.022;2023-12-20T08:57:20;0.52;;;0.35;;
28836;SDS011;50669;50.982;11.022;2023-12-20T08:59:46;0.65;;;0.40;;
28836;SDS011;50669;50.982;11.022;2023-12-20T09:02:14;1.00;;;0.50;;
28836;SDS011;50669;50.982;11.022;2023-12-20T09:04:41;1.40;;;0.60;;
28836;SDS011;50669;50.982;11.022;2023-12-20T09:07:06;1.98;;;0.52;;
28836;SDS011;50669;50.982;11.022;2023-12-20T09:09:32;1.05;;;0.57;;
28836;SDS011;50669;50.982;11.022;2023-12-20T09:11:58;1.05;;;0.50;;
28836;SDS011;50669;50.982;11.022;2023-12-20T09:14:24;0.98;;;0.40;;
28836;SDS011;50669;50.982;11.022;2023-12-20T09:16:49;0.85;;;0.40;;
28836;SDS011;50669;50.982;11.022;2023-12-20T09:19:16;0.77;;;0.60;;
28836;SDS011;50669;50.982;11.022;2023-12-20T09:21:44;0.60;;;0.30;;
28836;SDS011;50669;50.982;11.022;2023-12-20T09:24:10;3.33;;;0.57;;
28836;SDS011;50669;50.982;11.022;2023-12-20T09:26:36;2.30;;;0.60;;
28836;SDS011;50669;50.982;11.022;2023-12-20T09:29:04;2.22;;;0.60;;
28836;SDS011;50669;50.982;11.022;2023-12-20T09:31:35;2.88;;;0.88;;
28836;SDS011;50669;50.982;11.022;2023-12-20T09:34:04;3.40;;;0.63;;
28836;SDS011;50669;50.982;11.022;2023-12-20T09:36:30;0.90;;;0.50;;
28836;SDS011;50669;50.982;11.022;2023-12-20T09:39:01;1.20;;;0.43;;
28836;SDS011;50669;50.982;11.022;2023-12-20T09:41:27;0.80;;;0.55;;
28836;SDS011;50669;50.982;11.022;2023-12-20T09:43:56;1.20;;;0.50;;
28836;SDS011;50669;50.982;11.022;2023-12-20T09:46:28;2.30;;;0.50;;
28836;SDS011;50669;50.982;11.022;2023-12-20T09:48:58;1.15;;;0.70;;
28836;SDS011;50669;50.982;11.022;2023-12-20T09:51:27;2.47;;;0.50;;
28836;SDS011;50669;50.982;11.022;2023-12-20T09:53:54;2.30;;;0.40;;
28836;SDS011;50669;50.982;11.022;2023-12-20T09:56:23;1.30;;;0.60;;
28836;SDS011;50669;50.982;11.022;2023-12-20T09:58:50;1.20;;;0.50;;
28836;SDS011;50669;50.982;11.022;2023-12-20T10:01:16;0.75;;;0.50;;
28836;SDS011;50669;50.982;11.022;2023-12-20T10:03:43;0.60;;;0.40;;
28836;SDS011;50669;50.982;11.022;2023-12-20T10:06:08;1.67;;;0.50;;
28836;SDS011;50669;50.982;11.022;2023-12-20T10:08:35;1.05;;;0.52;;
28836;SDS011;50669;50.982;11.022;2023-12-20T10:11:00;1.13;;;0.57;;
28836;SDS011;50669;50.982;11.022;2023-12-20T10:13:30;1.75;;;0.65;;
28836;SDS011;50669;50.982;11.022;2023-12-20T10:15:59;3.88;;;0.50;;
28836;SDS011;50669;50.982;11.022;2023-12-20T10:18:25;0.68;;;0.35;;
28836;SDS011;50669;50.982;11.022;2023-12-20T10:20:53;1.27;;;0.50;;
28836;SDS011;50669;50.982;11.022;2023-12-20T10:23:19;1.30;;;0.38;;
28836;SDS011;50669;50.982;11.022;2023-12-20T10:25:54;1.63;;;0.45;;
28836;SDS011;50669;50.982;11.022;2023-12-20T10:28:22;1.33;;;0.50;;
28836;SDS011;50669;50.982;11.022;2023-12-20T10:30:50;0.50;;;0.40;;
28836;SDS011;50669;50.982;11.022;2023-12-20T10:33:27;0.63;;;0.32;;
28836;SDS011;50669;50.982;11.022;2023-12-20T10:35:54;0.80;;;0.57;;
28836;SDS011;50669;50.982;11.022;2023-12-20T10:38:22;1.42;;;0.50;;
28836;SDS011;50669;50.982;11.022;2023-12-20T10:40:53;0.68;;;0.50;;
28836;SDS011;50669;50.982;11.022;2023-12-20T10:43:22;0.85;;;0.40;;
28836;SDS011;50669;50.982;11.022;2023-12-20T10:45:51;0.95;;;0.50;;
28836;SDS011;50669;50.982;11.022;2023-12-20T10:48:17;0.95;;;0.30;;
28836;SDS011;50669;50.982;11.022;2023-12-20T10:50:43;1.33;;;0.50;;
28836;SDS011;50669;50.982;11.022;2023-12-20T10:53:10;0.55;;;0.32;;
28836;SDS011;50669;50.982;11.022;2023-12-20T10:55:40;1.77;;;0.75;;
28836;SDS011;50669;50.982;11.022;2023-12-20T10:58:08;1.00;;;0.43;;
28836;SDS011;50669;50.982;11.022;2023-12-20T11:00:40;0.60;;;0.30;;
28836;SDS011;50669;50.982;11.022;2023-12-20T11:03:06;0.82;;;0.30;;
28836;SDS011;50669;50.982;11.022;2023-12-20T11:11:40;1.48;;;0.75;;
28836;SDS011;50669;50.982;11.022;2023-12-20T11:14:17;0.50;;;0.35;;
28836;SDS011;50669;50.982;11.022;2023-12-20T11:16:47;1.95;;;0.50;;
28836;SDS011;50669;50.982;11.022;2023-12-20T11:19:13;0.80;;;0.40;;
28836;SDS011;50669;50.982;11.022;2023-12-20T11:21:39;0.75;;;0.40;;
28836;SDS011;50669;50.982;11.022;2023-12-20T11:24:06;0.98;;;0.47;;
28836;SDS011;50669;50.982;11.022;2023-12-20T11:26:31;0.28;;;0.28;;
28836;SDS011;50669;50.982;11.022;2023-12-20T11:34:47;0.70;;;0.30;;
28836;SDS011;50669;50.982;11.022;2023-12-20T11:37:12;1.20;;;0.50;;
28836;SDS011;50669;50.982;11.022;2023-12-20T11:39:41;1.27;;;0.47;;
28836;SDS011;50669;50.982;11.022;2023-12-20T11:42:09;1.00;;;0.73;;
28836;SDS011;50669;50.982;11.022;2023-12-20T11:44:36;0.80;;;0.60;;
28836;SDS011;50669;50.982;11.022;2023-12-20T11:47:02;0.57;;;0.30;;
28836;SDS011;50669;50.982;11.022;2023-12-20T11:49:28;0.85;;;0.40;;
28836;SDS011;50669;50.982;11.022;2023-12-20T11:51:55;0.70;;;0.40;;
28836;SDS011;50669;50.982;11.022;2023-12-20T11:54:22;1.77;;;0.30;;
28836;SDS011;50669;50.982;11.022;2023-12-20T11:56:47;1.38;;;0.50;;
28836;SDS011;50669;50.982;11.022;2023-12-20T11:59:13;0.50;;;0.40;;
28836;SDS011;50669;50.982;11.022;2023-12-20T12:01:40;1.05;;;0.40;;
28836;SDS011;50669;50.982;11.022;2023-12-20T12:04:12;1.33;;;0.40;;
28836;SDS011;50669;50.982;11.022;2023-12-20T12:06:40;1.75;;;0.50;;
28836;SDS011;50669;50.982;11.022;2023-12-20T12:09:06;0.50;;;0.30;;
28836;SDS011;50669;50.982;11.022;2023-12-20T12:11:34;0.65;;;0.40;;
28836;SDS011;50669;50.982;11.022;2023-12-20T12:14:02;0.82;;;0.43;;
28836;SDS011;50669;50.982;11.022;2023-12-20T12:16:30;0.60;;;0.30;;
28836;SDS011;50669;50.982;11.022;2023-12-20T12:18:58;0.60;;;0.25;;
28836;SDS011;50669;50.982;11.022;2023-12-20T12:21:26;0.63;;;0.30;;
28836;SDS011;50669;50.982;11.022;2023-12-20T12:23:54;0.40;;;0.30;;
28836;SDS011;50669;50.982;11.022;2023-12-20T12:26:31;2.55;;;0.60;;
28836;SDS011;50669;50.982;11.022;2023-12-20T12:28:57;1.60;;;0.57;;
28836;SDS011;50669;50.982;11.022;2023-12-20T12:31:25;1.55;;;0.40;;
28836;SDS011;50669;50.982;11.022;2023-12-20T12:33:53;0.90;;;0.30;;
28836;SDS011;50669;50.982;11.022;2023-12-20T12:36:23;1.52;;;0.60;;
28836;SDS011;50669;50.982;11.022;2023-12-20T12:38:51;1.38;;;0.30;;
28836;SDS011;50669;50.982;11.022;2023-12-20T12:41:21;1.05;;;0.40;;
28836;SDS011;50669;50.982;11.022;2023-12-20T12:43:48;1.20;;;0.50;;
28836;SDS011;50669;50.982;11.022;2023-12-20T12:46:14;0.93;;;0.30;;
28836;SDS011;50669;50.982;11.022;2023-12-20T12:48:40;0.80;;;0.40;;
28836;SDS011;50669;50.982;11.022;2023-12-20T12:51:05;0.85;;;0.40;;
28836;SDS011;50669;50.982;11.022;2023-12-20T12:53:32;0.57;;;0.30;;
28836;SDS011;50669;50.982;11.022;2023-12-20T12:56:00;0.32;;;0.30;;
28836;SDS011;50669;50.982;11.022;2023-12-20T12:58:26;0.85;;;0.40;;
28836;SDS011;50669;50.982;11.022;2023-12-20T13:00:54;0.43;;;0.30;;
28836;SDS011;50669;50.982;11.022;2023-12-20T13:03:22;0.30;;;0.30;;
28836;SDS011;50669;50.982;11.022;2023-12-20T13:05:47;0.90;;;0.30;;
28836;SDS011;50669;50.982;11.022;2023-12-20T13:08:17;0.82;;;0.30;;
28836;SDS011;50669;50.982;11.022;2023-12-20T13:10:44;0.52;;;0.30;;
28836;SDS011;50669;50.982;11.022;2023-12-20T13:13:11;1.10;;;0.40;;
28836;SDS011;50669;50.982;11.022;2023-12-20T13:15:37;0.60;;;0.30;;
28836;SDS011;50669;50.982;11.022;2023-12-20T13:18:03;1.10;;;0.40;;
28836;SDS011;50669;50.982;11.022;2023-12-20T13:20:29;0.60;;;0.43;;
28836;SDS011;50669;50.982;11.022;2023-12-20T13:22:55;1.10;;;0.38;;
28836;SDS011;50669;50.982;11.022;2023-12-20T13:25:20;0.75;;;0.40;;
28836;SDS011;50669;50.982;11.022;2023-12-20T13:27:48;0.82;;;0.30;;
28836;SDS011;50669;50.982;11.022;2023-12-20T13:30:19;0.82;;;0.30;;
28836;SDS011;50669;50.982;11.022;2023-12-20T13:32:47;0.65;;;0.40;;
28836;SDS011;50669;50.982;11.022;2023-12-20T13:35:15;0.90;;;0.32;;
28836;SDS011;50669;50.982;11.022;2023-12-20T13:37:40;0.60;;;0.40;;
28836;SDS011;50669;50.982;11.022;2023-12-20T13:40:12;0.43;;;0.30;;
28836;SDS011;50669;50.982;11.022;2023-12-20T13:42:42;0.45;;;0.30;;
28836;SDS011;50669;50.982;11.022;2023-12-20T13:45:10;1.30;;;0.30;;
28836;SDS011;50669;50.982;11.022;2023-12-20T13:47:36;0.60;;;0.30;;
28836;SDS011;50669;50.982;11.022;2023-12-20T13:50:04;0.30;;;0.30;;
28836;SDS011;50669;50.982;11.022;2023-12-20T13:52:30;0.47;;;0.30;;
28836;SDS011;50669;50.982;11.022;2023-12-20T13:54:58;0.70;;;0.30;;
28836;SDS011;50669;50.982;11.022;2023-12-20T13:57:26;0.45;;;0.30;;
28836;SDS011;50669;50.982;11.022;2023-12-20T13:59:51;0.65;;;0.30;;
28836;SDS011;50669;50.982;11.022;2023-12-20T14:02:17;1.42;;;0.40;;
28836;SDS011;50669;50.982;11.022;2023-12-20T14:04:42;0.60;;;0.40;;
28836;SDS011;50669;50.982;11.022;2023-12-20T14:07:08;0.45;;;0.30;;
28836;SDS011;50669;50.982;11.022;2023-12-20T14:09:35;0.50;;;0.30;;
28836;SDS011;50669;50.982;11.022;2023-12-20T14:12:00;1.13;;;0.35;;
28836;SDS011;50669;50.982;11.022;2023-12-20T14:14:26;0.70;;;0.43;;
28836;SDS011;50669;50.982;11.022;2023-12-20T14:16:57;1.40;;;0.30;;
28836;SDS011;50669;50.982;11.022;2023-12-20T14:19:23;0.35;;;0.20;;
28836;SDS011;50669;50.982;11.022;2023-12-20T14:21:48;0.45;;;0.30;;
28836;SDS011;50669;50.982;11.022;2023-12-20T14:24:14;1.10;;;0.50;;
28836;SDS011;50669;50.982;11.022;2023-12-20T14:26:40;0.55;;;0.30;;
28836;SDS011;50669;50.982;11.022;2023-12-20T14:29:06;0.88;;;0.30;;
28836;SDS011;50669;50.982;11.022;2023-12-20T14:31:32;0.50;;;0.30;;
28836;SDS011;50669;50.982;11.022;2023-12-20T14:34:02;1.80;;;0.32;;
28836;SDS011;50669;50.982;11.022;2023-12-20T14:36:29;0.93;;;0.47;;
28836;SDS011;50669;50.982;11.022;2023-12-20T14:38:57;0.80;;;0.40;;
28836;SDS011;50669;50.982;11.022;2023-12-20T14:41:24;0.68;;;0.30;;
28836;SDS011;50669;50.982;11.022;2023-12-20T14:43:50;0.57;;;0.40;;